Time;durP1;ratioP1;P1;durP2;ratioP2;P2;SDS_P1;SDS_P2;PMS_P1;PMS_P2;Temp;Humidity;BMP_temperature;BMP_pressure;BME280_temperature;BME280_humidity;BME280_pressure;Samples;Min_cycle;Max_cycle;Signal;HPM_P1;HPM_P2
2021/05/05 00:02:09;;;;;;;3.17;1.65;;;;;;;5.49;84.42;100083.81;5300987;28;20484;-67
2021/05/05 00:04:40;;;;;;;5.13;2.08;;;;;;;5.40;84.96;100082.72;5290735;28;20103;-67
2021/05/05 00:07:12;;;;;;;5.40;2.47;;;;;;;5.43;85.45;100087.69;5301344;28;20030;-67
2021/05/05 00:09:43;;;;;;;3.78;2.63;;;;;;;5.49;86.31;100092.44;5290411;28;20507;-67
2021/05/05 00:12:14;;;;;;;4.68;2.85;;;;;;;5.51;85.60;100089.72;5293264;28;20032;-67
2021/05/05 00:14:45;;;;;;;3.25;2.50;;;;;;;5.53;85.16;100093.88;5292229;28;20111;-67
2021/05/05 00:17:17;;;;;;;4.60;2.55;;;;;;;5.56;84.58;100096.22;5277842;28;20032;-67
2021/05/05 00:19:48;;;;;;;6.13;2.72;;;;;;;5.63;86.04;100095.75;5289716;28;20026;-67
2021/05/05 00:22:19;;;;;;;3.80;2.40;;;;;;;5.56;85.30;100090.19;5304193;28;20020;-67
2021/05/05 00:24:51;;;;;;;4.82;2.60;;;;;;;5.56;85.49;100091.00;5294222;28;20036;-67
2021/05/05 00:27:22;;;;;;;4.75;2.70;;;;;;;5.55;85.46;100086.78;5295950;28;20023;-67
2021/05/05 00:29:53;;;;;;;8.32;2.80;;;;;;;5.57;85.93;100087.50;5295917;28;20031;-67
2021/05/05 00:32:25;;;;;;;7.68;3.38;;;;;;;5.59;85.95;100090.78;5299301;28;20027;-67
2021/05/05 00:34:56;;;;;;;5.75;2.80;;;;;;;5.59;85.94;100076.97;5291321;28;20508;-67
2021/05/05 00:37:27;;;;;;;5.35;2.40;;;;;;;5.61;85.43;100077.69;5295099;28;20032;-67
2021/05/05 00:39:59;;;;;;;5.63;2.20;;;;;;;5.63;86.28;100082.75;5290882;28;20552;-67
2021/05/05 00:42:30;;;;;;;6.82;2.70;;;;;;;5.60;85.88;100076.84;5291691;28;20485;-67
2021/05/05 00:45:05;;;;;;;7.03;2.90;;;;;;;5.63;85.92;100081.00;5295764;28;20036;-67
2021/05/05 00:47:37;;;;;;;5.82;2.38;;;;;;;5.62;86.28;100074.16;5302886;28;20051;-67
2021/05/05 00:50:13;;;;;;;5.25;2.50;;;;;;;5.68;86.77;100067.63;5281415;28;20038;-67
2021/05/05 00:52:44;;;;;;;8.38;3.20;;;;;;;5.69;86.80;100059.75;5296010;28;20042;-67
2021/05/05 00:55:16;;;;;;;4.95;2.63;;;;;;;5.67;86.30;100068.59;5293039;28;20485;-67
2021/05/05 00:57:49;;;;;;;5.18;2.78;;;;;;;5.65;86.19;100060.94;5290732;28;20035;-67
2021/05/05 01:00:21;;;;;;;5.70;2.58;;;;;;;5.71;86.77;100062.22;5301420;28;20032;-67
2021/05/05 01:02:52;;;;;;;5.82;3.10;;;;;;;5.65;86.20;100062.69;5299994;28;20122;-67
2021/05/05 01:05:23;;;;;;;4.95;2.95;;;;;;;5.60;85.47;100065.63;5296888;28;20283;-67
2021/05/05 01:07:55;;;;;;;5.20;2.60;;;;;;;5.57;85.72;100063.28;5296539;28;20076;-67
2021/05/05 01:10:26;;;;;;;5.20;2.50;;;;;;;5.51;85.49;100067.16;5287083;28;20107;-67
2021/05/05 01:12:58;;;;;;;6.40;2.50;;;;;;;5.44;84.63;100068.56;5282039;28;20035;-67
2021/05/05 01:15:29;;;;;;;3.40;2.33;;;;;;;5.38;84.70;100069.06;5290277;28;20023;-67
2021/05/05 01:18:01;;;;;;;6.63;2.60;;;;;;;5.31;84.57;100068.69;5295285;28;20030;-67
2021/05/05 01:20:32;;;;;;;5.82;2.20;;;;;;;5.24;83.85;100069.25;5297179;28;20082;-67
2021/05/05 01:23:04;;;;;;;4.47;2.17;;;;;;;5.18;84.13;100070.53;5294276;28;20035;-67
2021/05/05 01:25:35;;;;;;;3.78;2.08;;;;;;;5.16;84.07;100066.41;5293265;28;20029;-67
2021/05/05 01:28:06;;;;;;;4.68;2.00;;;;;;;5.09;84.28;100060.84;5294107;28;20046;-67
2021/05/05 01:30:38;;;;;;;5.85;2.10;;;;;;;5.07;84.54;100067.91;5296242;28;20114;-67
2021/05/05 01:33:09;;;;;;;3.75;2.05;;;;;;;5.04;83.93;100068.97;5297939;28;20388;-67
2021/05/05 01:35:43;;;;;;;3.78;1.85;;;;;;;5.03;84.36;100062.09;5298149;28;20059;-67
2021/05/05 01:38:14;;;;;;;;;;;;;;;5.22;83.45;100056.38;5297710;28;20475;-67
2021/05/05 01:40:46;;;;;;;4.28;1.95;;;;;;;5.03;83.89;100048.31;5299721;28;20034;-67
2021/05/05 01:43:18;;;;;;;3.70;2.15;;;;;;;5.00;84.53;100057.16;5299165;28;20042;-67
2021/05/05 01:45:49;;;;;;;4.03;2.20;;;;;;;4.94;83.73;100057.59;5294520;28;20560;-67
2021/05/05 01:48:21;;;;;;;4.60;2.65;;;;;;;4.89;84.51;100057.13;5290422;28;20446;-67
2021/05/05 01:50:52;;;;;;;3.22;2.30;;;;;;;4.87;84.52;100051.22;5301119;28;20480;-67
2021/05/05 01:53:23;;;;;;;4.85;2.90;;;;;;;4.87;84.42;100046.03;5293262;28;20028;-66
2021/05/05 01:55:55;;;;;;;6.38;2.78;;;;;;;4.86;84.75;100047.78;5295448;28;20538;-66
2021/05/05 01:58:26;;;;;;;6.18;3.10;;;;;;;4.86;84.95;100047.78;5298287;28;20119;-67
2021/05/05 02:00:57;;;;;;;6.25;3.40;;;;;;;4.87;84.97;100052.03;5289745;28;20039;-66
2021/05/05 02:03:29;;;;;;;5.60;3.88;;;;;;;4.88;85.01;100052.84;5301686;28;20027;-67
2021/05/05 02:06:00;;;;;;;5.70;3.65;;;;;;;4.88;85.23;100047.66;5294248;28;20028;-66
2021/05/05 02:08:31;;;;;;;5.63;3.53;;;;;;;4.91;85.42;100050.03;5294580;28;20061;-66
2021/05/05 02:11:03;;;;;;;8.23;4.72;;;;;;;4.91;85.51;100049.22;5293537;28;20405;-66
2021/05/05 02:13:34;;;;;;;7.80;4.50;;;;;;;4.86;85.65;100040.00;5301601;28;20477;-66
2021/05/05 02:16:06;;;;;;;7.97;4.78;;;;;;;4.90;86.46;100044.97;5290595;28;20400;-66
2021/05/05 02:18:37;;;;;;;6.15;4.10;;;;;;;4.92;85.68;100051.69;5280321;28;20123;-66
2021/05/05 02:21:08;;;;;;;7.93;4.10;;;;;;;4.90;86.00;100050.16;5300452;28;20032;-66
2021/05/05 02:23:40;;;;;;;4.53;3.72;;;;;;;4.91;85.91;100051.81;5297116;28;20033;-66
2021/05/05 02:26:11;;;;;;;6.53;4.78;;;;;;;4.90;85.91;100052.75;5288528;28;20468;-66
2021/05/05 02:28:42;;;;;;;7.75;4.32;;;;;;;4.92;86.10;100051.69;5292294;28;20028;-66
2021/05/05 02:31:14;;;;;;;7.03;4.10;;;;;;;4.95;85.43;100064.44;5294619;28;20032;-66
2021/05/05 02:33:45;;;;;;;7.78;4.43;;;;;;;4.93;85.71;100055.13;5300748;28;20111;-66
2021/05/05 02:36:16;;;;;;;6.63;5.13;;;;;;;4.93;86.02;100049.94;5291841;28;20027;-66
2021/05/05 02:38:47;;;;;;;9.48;4.95;;;;;;;4.96;85.61;100060.91;5288982;28;20023;-66
2021/05/05 02:41:19;;;;;;;8.23;5.03;;;;;;;4.99;85.30;100057.25;5288411;28;20119;-66
2021/05/05 02:43:50;;;;;;;11.20;5.25;;;;;;;4.92;85.32;100056.06;5280474;28;20035;-66
2021/05/05 02:46:22;;;;;;;8.23;5.65;;;;;;;4.93;85.26;100055.13;5288283;28;20038;-67
2021/05/05 02:48:53;;;;;;;9.05;6.25;;;;;;;4.90;85.48;100051.00;5288328;28;20043;-66
2021/05/05 02:51:25;;;;;;;12.48;7.55;;;;;;;4.89;85.41;100051.94;5294265;28;20031;-66
2021/05/05 02:53:56;;;;;;;11.13;6.70;;;;;;;4.88;85.77;100052.84;5293878;28;20032;-66
2021/05/05 02:56:28;;;;;;;11.10;7.70;;;;;;;4.89;85.51;100051.94;5300122;28;20031;-66
2021/05/05 02:58:59;;;;;;;10.57;8.52;;;;;;;4.86;85.71;100052.97;5296105;28;20449;-66
2021/05/05 03:01:31;;;;;;;10.52;8.05;;;;;;;4.91;86.03;100057.81;5295016;28;20111;-66
2021/05/05 03:04:02;;;;;;;14.32;8.60;;;;;;;4.92;86.39;100059.47;5296490;28;20043;-66
2021/05/05 03:06:34;;;;;;;11.23;8.23;;;;;;;4.97;86.83;100062.56;5300025;28;20077;-66
2021/05/05 03:09:06;;;;;;;13.65;9.55;;;;;;;5.00;85.96;100061.50;5293313;28;20046;-66
2021/05/05 03:11:38;;;;;;;13.68;9.93;;;;;;;5.00;86.61;100070.16;5297682;28;20507;-66
2021/05/05 03:14:09;;;;;;;12.55;9.75;;;;;;;5.03;87.02;100062.09;5297206;28;20051;-65
2021/05/05 03:16:40;;;;;;;13.57;9.23;;;;;;;5.04;87.38;100056.00;5291293;28;20092;-65
2021/05/05 03:19:12;;;;;;;10.10;8.27;;;;;;;5.04;86.69;100058.59;5295224;28;20028;-66
2021/05/05 03:21:43;;;;;;;16.38;9.20;;;;;;;5.08;86.74;100075.59;5294149;28;20028;-65
2021/05/05 03:24:15;;;;;;;9.23;8.07;;;;;;;5.06;87.25;100068.84;5297367;28;20031;-65
2021/05/05 03:26:46;;;;;;;10.90;7.15;;;;;;;5.08;86.26;100069.56;5280957;28;20640;-66
2021/05/05 03:29:17;;;;;;;9.80;5.53;;;;;;;5.07;86.30;100073.91;5300681;28;20041;-66
2021/05/05 03:31:48;;;;;;;8.43;5.20;;;;;;;5.03;85.57;100080.28;5302663;28;20297;-66
2021/05/05 03:34:20;;;;;;;10.00;4.88;;;;;;;5.02;86.06;100070.84;5288694;28;20093;-66
2021/05/05 03:36:51;;;;;;;7.28;3.65;;;;;;;5.00;85.74;100069.28;5278474;28;20312;-66
2021/05/05 03:39:22;;;;;;;7.13;3.60;;;;;;;4.98;86.20;100078.97;5298029;28;20027;-66
2021/05/05 03:41:54;;;;;;;4.65;3.42;;;;;;;4.95;86.52;100076.59;5302172;28;20024;-66
2021/05/05 03:44:25;;;;;;;6.80;3.50;;;;;;;4.98;86.03;100072.00;5296778;28;20392;-66
2021/05/05 03:46:56;;;;;;;7.35;3.97;;;;;;;4.95;85.89;100068.81;5296082;28;20471;-66
2021/05/05 03:49:27;;;;;;;7.65;3.63;;;;;;;5.01;85.25;100076.16;5295413;28;20032;-66
2021/05/05 03:51:59;;;;;;;6.50;3.42;;;;;;;5.00;85.12;100075.34;5300183;28;20439;-66
2021/05/05 03:54:31;;;;;;;7.10;2.90;;;;;;;4.98;85.67;100077.19;5290520;28;20450;-66
2021/05/05 03:57:02;;;;;;;7.50;3.10;;;;;;;5.01;85.79;100071.78;5298617;27;20082;-66
2021/05/05 03:59:33;;;;;;;6.85;2.80;;;;;;;5.02;85.60;100077.81;5302761;28;20110;-66
2021/05/05 04:02:05;;;;;;;11.05;3.10;;;;;;;5.01;85.46;100076.16;5289351;28;20443;-66
2021/05/05 04:04:36;;;;;;;7.68;3.00;;;;;;;5.05;85.66;100086.19;5296410;28;20117;-66
2021/05/05 04:07:07;;;;;;;6.60;2.83;;;;;;;5.02;85.65;100083.00;5293303;28;20055;-66
2021/05/05 04:09:39;;;;;;;10.80;3.13;;;;;;;5.04;86.09;100081.13;5292520;28;20039;-66
2021/05/05 04:12:11;;;;;;;9.15;3.08;;;;;;;5.00;85.56;100077.94;5296528;28;20056;-66
2021/05/05 04:14:42;;;;;;;7.93;2.40;;;;;;;4.99;85.04;100078.84;5303187;28;20032;-66
2021/05/05 04:17:14;;;;;;;10.98;2.65;;;;;;;4.98;84.95;100081.56;5300573;28;20022;-66
2021/05/05 04:19:45;;;;;;;8.13;2.90;;;;;;;4.96;85.45;100084.25;5301900;28;20032;-66
2021/05/05 04:22:16;;;;;;;10.50;3.35;;;;;;;4.96;84.93;100093.81;5298737;28;20036;-66
2021/05/05 04:24:48;;;;;;;9.82;3.22;;;;;;;4.99;85.29;100089.22;5301389;28;20655;-66
2021/05/05 04:27:20;;;;;;;12.30;4.53;;;;;;;4.95;85.12;100092.16;5300099;28;20027;-66
2021/05/05 04:29:51;;;;;;;7.97;5.57;;;;;;;5.01;86.31;100094.31;5293239;28;20040;-66
2021/05/05 04:32:22;;;;;;;13.98;7.10;;;;;;;4.97;85.88;100096.31;5291386;28;20028;-66
2021/05/05 04:34:54;;;;;;;15.35;8.07;;;;;;;4.98;86.33;100103.16;5291584;28;20027;-66
2021/05/05 04:37:25;;;;;;;14.77;10.35;;;;;;;5.01;86.74;100105.53;5280944;28;20495;-66
2021/05/05 04:39:56;;;;;;;14.15;10.98;;;;;;;4.99;86.84;100104.81;5295242;28;20043;-67
2021/05/05 04:42:28;;;;;;;18.65;12.18;;;;;;;5.00;87.52;100114.28;5298915;28;20031;-67
2021/05/05 04:45:03;;;;;;;14.95;11.98;;;;;;;4.99;87.17;100122.16;5299921;28;20020;-68
2021/05/05 04:47:36;;;;;;;14.00;11.30;;;;;;;5.02;87.30;100133.16;5289921;28;20036;-66
2021/05/05 04:50:10;;;;;;;13.98;11.48;;;;;;;4.97;87.05;100137.84;5291093;28;20043;-66
2021/05/05 04:52:41;;;;;;;12.15;9.18;;;;;;;5.01;87.29;100143.66;5302504;28;20051;-66
2021/05/05 04:55:13;;;;;;;14.10;10.27;;;;;;;5.02;88.04;100151.31;5295187;28;20082;-67
2021/05/05 04:57:45;;;;;;;14.57;9.70;;;;;;;5.01;87.94;100152.25;5298621;28;20092;-67
2021/05/05 05:00:17;;;;;;;13.55;10.07;;;;;;;5.01;87.69;100157.47;5300079;28;20487;-67
2021/05/05 05:02:48;;;;;;;13.63;9.10;;;;;;;5.05;87.53;100156.28;5304687;28;20027;-67
2021/05/05 05:05:22;;;;;;;14.07;9.80;;;;;;;5.06;87.95;100159.72;5303355;28;20039;-67
2021/05/05 05:07:58;;;;;;;13.43;9.48;;;;;;;5.08;87.70;100158.66;5298754;28;20039;-67
2021/05/05 05:10:29;;;;;;;10.50;8.18;;;;;;;5.06;87.80;100162.31;5296955;28;20118;-66
2021/05/05 05:13:01;;;;;;;9.38;6.38;;;;;;;5.05;87.56;100163.25;5290268;28;20289;-67
2021/05/05 05:15:33;;;;;;;12.68;6.32;;;;;;;5.09;87.72;100168.09;5296016;28;20038;-67
2021/05/05 05:18:04;;;;;;;9.45;5.30;;;;;;;5.07;87.66;100167.38;5282816;28;20032;-67
2021/05/05 05:20:35;;;;;;;8.43;5.47;;;;;;;5.11;87.66;100168.84;5298495;28;20055;-67
2021/05/05 05:23:07;;;;;;;7.82;4.18;;;;;;;5.10;86.84;100164.56;5296068;28;20127;-67
2021/05/05 05:25:38;;;;;;;9.68;4.30;;;;;;;5.15;86.78;100173.78;5297678;28;20067;-67
2021/05/05 05:28:09;;;;;;;6.60;3.42;;;;;;;5.10;86.87;100177.53;5299416;28;20037;-67
2021/05/05 05:30:41;;;;;;;6.28;3.40;;;;;;;5.15;86.20;100184.16;5303407;28;20028;-67
2021/05/05 05:33:12;;;;;;;6.95;2.47;;;;;;;5.16;85.46;100185.84;5291184;28;20065;-67
2021/05/05 05:35:43;;;;;;;8.63;2.70;;;;;;;5.10;85.06;100187.09;5298276;28;20750;-67
2021/05/05 05:38:14;;;;;;;7.25;2.38;;;;;;;5.09;85.31;100190.66;5296007;28;20122;-67
2021/05/05 05:40:46;;;;;;;9.30;3.08;;;;;;;5.06;86.06;100190.88;5291182;28;20404;-67
2021/05/05 05:43:17;;;;;;;7.25;2.38;;;;;;;5.08;85.97;100196.78;5296967;28;20039;-67
2021/05/05 05:45:48;;;;;;;5.60;2.30;;;;;;;5.10;86.01;100198.31;5296926;28;20038;-67
2021/05/05 05:48:20;;;;;;;7.45;2.25;;;;;;;5.06;85.05;100203.84;5296452;28;20489;-67
2021/05/05 05:50:51;;;;;;;9.65;2.50;;;;;;;5.03;85.86;100211.84;5296666;28;20039;-67
2021/05/05 05:53:23;;;;;;;9.82;2.42;;;;;;;5.04;86.07;100214.34;5302061;28;20111;-67
2021/05/05 05:55:54;;;;;;;10.27;2.70;;;;;;;5.03;86.55;100207.47;5293280;28;20051;-67
2021/05/05 05:58:25;;;;;;;6.65;2.35;;;;;;;5.06;86.64;100227.22;5295842;28;20422;-66
2021/05/05 06:00:56;;;;;;;7.68;2.80;;;;;;;5.07;86.99;100216.72;5291985;28;21077;-67
2021/05/05 06:03:28;;;;;;;9.70;3.00;;;;;;;5.11;87.91;100225.97;5289197;28;20036;-66
2021/05/05 06:05:59;;;;;;;9.18;3.00;;;;;;;5.11;86.78;100238.09;5288714;28;20057;-67
2021/05/05 06:08:32;;;;;;;6.18;3.08;;;;;;;5.10;87.63;100244.22;5289660;28;20289;-66
2021/05/05 06:11:04;;;;;;;6.70;2.80;;;;;;;5.10;86.90;100244.22;5288704;28;20044;-66
2021/05/05 06:13:35;;;;;;;4.80;2.33;;;;;;;5.12;87.71;100244.97;5290287;28;20028;-66
2021/05/05 06:16:07;;;;;;;4.78;1.80;;;;;;;5.05;86.79;100244.56;5302366;28;20031;-66
2021/05/05 06:18:38;;;;;;;4.47;1.48;;;;;;;5.01;85.60;100245.72;5279060;28;20471;-66
2021/05/05 06:21:10;;;;;;;3.42;1.67;;;;;;;4.98;86.63;100250.31;5295995;28;20031;-66
2021/05/05 06:23:41;;;;;;;3.17;1.40;;;;;;;4.98;87.18;100243.34;5278343;28;20124;-66
2021/05/05 06:26:12;;;;;;;4.30;1.50;;;;;;;4.90;86.71;100258.63;5293836;28;20607;-66
2021/05/05 06:28:43;;;;;;;2.85;1.65;;;;;;;4.96;86.30;100250.38;5292880;28;20149;-66
2021/05/05 06:31:15;;;;;;;5.68;1.70;;;;;;;4.93;86.04;100257.59;5299615;28;20023;-66
2021/05/05 06:33:46;;;;;;;4.28;1.67;;;;;;;4.97;86.38;100262.44;5288713;28;20146;-66
2021/05/05 06:36:17;;;;;;;6.93;1.55;;;;;;;5.03;87.21;100263.78;5287556;28;20403;-66
2021/05/05 06:38:49;;;;;;;4.28;1.58;;;;;;;5.11;86.95;100272.69;5298734;28;20032;-66
2021/05/05 06:41:20;;;;;;;3.92;1.75;;;;;;;5.17;86.90;100273.19;5298155;28;20063;-66
2021/05/05 06:43:51;;;;;;;5.63;1.80;;;;;;;5.20;86.95;100263.41;5297922;28;20501;-66
2021/05/05 06:46:22;;;;;;;4.32;1.70;;;;;;;5.23;86.89;100267.56;5285786;28;20050;-67
2021/05/05 06:48:54;;;;;;;5.47;1.92;;;;;;;5.28;87.44;100266.28;5286710;28;20093;-66
2021/05/05 06:51:25;;;;;;;6.85;2.47;;;;;;;5.33;86.68;100261.56;5281657;28;20020;-66
2021/05/05 06:53:56;;;;;;;5.20;2.17;;;;;;;5.44;87.27;100262.56;5291792;28;20063;-67
2021/05/05 06:56:28;;;;;;;4.05;2.25;;;;;;;5.47;86.44;100264.97;5294840;28;20533;-67
2021/05/05 06:58:59;;;;;;;8.52;2.60;;;;;;;5.44;86.99;100262.56;5293307;28;20461;-67
2021/05/05 07:01:30;;;;;;;5.35;2.22;;;;;;;5.53;86.99;100269.69;5287129;28;20046;-67
2021/05/05 07:04:07;;;;;;;6.82;2.38;;;;;;;5.56;87.55;100267.69;5291169;28;20039;-66
2021/05/05 07:06:39;;;;;;;6.53;2.40;;;;;;;5.60;86.71;100270.91;5289002;28;20146;-67
2021/05/05 07:09:10;;;;;;;7.63;2.72;;;;;;;5.65;85.60;100271.41;5294394;28;20095;-66
2021/05/05 07:11:42;;;;;;;3.38;2.13;;;;;;;5.69;86.09;100282.41;5294563;28;20024;-67
2021/05/05 07:14:13;;;;;;;10.00;3.72;;;;;;;5.64;85.65;100284.50;5276562;28;20032;-67
2021/05/05 07:16:44;;;;;;;4.80;2.42;;;;;;;5.70;86.46;100281.47;5275754;28;20023;-67
2021/05/05 07:19:15;;;;;;;6.32;2.22;;;;;;;5.75;86.22;100290.56;5300807;28;20032;-67
2021/05/05 07:21:47;;;;;;;7.88;2.60;;;;;;;5.80;86.09;100291.06;5288859;28;20026;-67
2021/05/05 07:24:18;;;;;;;5.53;2.50;;;;;;;5.90;86.22;100295.59;5292005;28;20037;-67
2021/05/05 07:26:49;;;;;;;5.55;3.03;;;;;;;5.98;85.73;100288.91;5291685;28;20020;-67
2021/05/05 07:29:21;;;;;;;5.47;2.60;;;;;;;6.13;85.34;100296.50;5287611;28;20075;-67
2021/05/05 07:31:52;;;;;;;6.90;2.88;;;;;;;6.28;85.18;100283.16;5290230;28;20101;-68
2021/05/05 07:34:25;;;;;;;8.27;3.20;;;;;;;6.55;84.95;100298.47;5286280;28;20040;-67
2021/05/05 07:37:04;;;;;;;8.23;2.83;;;;;;;6.69;84.44;100297.38;5284086;28;20016;-67
2021/05/05 07:42:38;;;;;;;8.52;3.83;;;;;;;7.04;83.49;100294.63;5290749;28;20063;-67
2021/05/05 07:45:17;;;;;;;11.32;4.00;;;;;;;7.14;83.17;100294.75;5293309;28;20438;-67
2021/05/05 07:47:54;;;;;;;12.70;3.88;;;;;;;7.22;82.22;100296.75;5292369;27;20129;-67
2021/05/05 07:50:26;;;;;;;14.32;4.60;;;;;;;7.26;82.39;100303.38;5288366;28;20110;-67
2021/05/05 07:52:58;;;;;;;11.48;4.10;;;;;;;7.17;81.14;100306.72;5300076;28;20034;-66
2021/05/05 07:55:29;;;;;;;8.85;3.83;;;;;;;7.20;81.20;100307.28;5289249;28;20034;-68
2021/05/05 07:58:00;;;;;;;9.77;3.38;;;;;;;7.17;80.87;100319.72;5292780;28;20032;-68
2021/05/05 08:00:32;;;;;;;12.23;3.90;;;;;;;7.20;81.38;100324.72;5287061;28;20452;-67
2021/05/05 08:03:03;;;;;;;11.10;4.20;;;;;;;7.21;80.64;100334.19;5291002;28;20520;-68
2021/05/05 08:05:35;;;;;;;14.48;3.85;;;;;;;7.18;78.31;100335.22;5292625;28;20134;-67
2021/05/05 08:08:06;;;;;;;11.70;3.20;;;;;;;7.16;78.14;100333.69;5297792;28;20053;-68
2021/05/05 08:10:38;;;;;;;13.73;3.92;;;;;;;7.24;78.83;100339.97;5293621;28;20027;-68
2021/05/05 08:13:09;;;;;;;13.15;4.00;;;;;;;7.33;77.90;100343.63;5287270;28;20055;-67
2021/05/05 08:15:41;;;;;;;13.25;3.60;;;;;;;7.42;79.13;100340.28;5293476;28;20465;-67
2021/05/05 08:18:12;;;;;;;11.73;4.00;;;;;;;7.57;80.13;100333.81;5286411;28;20039;-67
2021/05/05 08:20:44;;;;;;;9.88;3.75;;;;;;;7.54;78.79;100336.72;5296787;28;20063;-67
2021/05/05 08:23:17;;;;;;;7.30;2.90;;;;;;;7.48;76.86;100338.97;5287078;28;20638;-67
2021/05/05 08:25:48;;;;;;;14.60;4.05;;;;;;;7.48;78.47;100331.97;5291844;28;20036;-67
2021/05/05 08:28:19;;;;;;;10.57;2.95;;;;;;;7.47;76.37;100338.16;5290757;28;20080;-67
2021/05/05 08:30:52;;;;;;;16.00;3.75;;;;;;;7.40;76.67;100329.16;5285077;28;20042;-67
2021/05/05 08:33:24;;;;;;;11.48;3.50;;;;;;;7.30;75.87;100336.88;5290215;28;20597;-67
2021/05/05 08:35:55;;;;;;;11.57;4.15;;;;;;;7.27;76.99;100349.31;5286903;28;20028;-67
2021/05/05 08:38:27;;;;;;;11.23;3.40;;;;;;;7.21;74.41;100353.22;5286694;28;20023;-67
2021/05/05 08:40:58;;;;;;;15.18;3.63;;;;;;;7.28;75.57;100367.44;5290953;28;20039;-67
2021/05/05 08:43:32;;;;;;;9.20;3.40;;;;;;;7.39;75.17;100366.59;5301971;28;20033;-67
2021/05/05 08:46:07;;;;;;;14.57;3.20;;;;;;;7.48;74.23;100360.66;5289732;28;20066;-67
2021/05/05 08:48:39;;;;;;;9.18;3.03;;;;;;;7.63;73.33;100365.59;5292945;28;20050;-67
2021/05/05 08:51:12;;;;;;;7.22;2.60;;;;;;;7.62;71.04;100377.81;5297410;28;20040;-67
2021/05/05 08:53:43;;;;;;;;;;;;;;;7.96;73.26;100377.69;5296799;28;20067;-67
2021/05/05 08:56:15;;;;;;;9.52;3.38;;;;;;;8.13;70.74;100379.75;5289782;28;20018;-67
2021/05/05 08:58:46;;;;;;;7.80;2.75;;;;;;;8.50;70.36;100388.00;5291041;28;20101;-66
2021/05/05 09:01:17;;;;;;;12.90;3.22;;;;;;;8.83;69.88;100385.31;5294371;28;20062;-66
2021/05/05 09:03:50;;;;;;;10.13;2.95;;;;;;;9.14;70.14;100378.28;5295480;28;20491;-68
2021/05/05 09:06:44;;;;;;;11.93;3.50;;;;;;;9.30;70.44;100370.75;5282422;28;20038;-66
2021/05/05 09:09:34;;;;;;;10.68;3.33;;;;;;;9.13;67.76;100387.06;5302201;28;20072;-66
2021/05/05 09:12:22;;;;;;;10.52;3.28;;;;;;;8.72;72.00;100421.00;5287518;28;20035;-65
2021/05/05 09:14:59;;;;;;;11.60;3.55;;;;;;;8.11;74.08;100439.06;5287452;28;20028;-65
2021/05/05 09:17:35;;;;;;;12.00;3.03;;;;;;;7.50;75.19;100420.47;5291032;28;20020;-66
2021/05/05 09:20:07;;;;;;;9.27;2.78;;;;;;;7.40;79.72;100430.78;5287356;28;20460;-66
2021/05/05 09:22:39;;;;;;;10.57;3.50;;;;;;;7.54;81.50;100422.72;5282689;28;20034;-66
2021/05/05 09:25:15;;;;;;;8.93;3.63;;;;;;;7.84;82.27;100410.81;5290023;28;20028;-68
2021/05/05 09:28:07;;;;;;;13.18;3.78;;;;;;;8.23;81.06;100419.78;5293782;28;20489;-68
2021/05/05 09:30:44;;;;;;;12.45;3.55;;;;;;;8.50;79.29;100419.34;5296623;28;20385;-66
2021/05/05 09:33:34;;;;;;;10.48;2.88;;;;;;;8.68;75.69;100430.03;5289134;28;20077;-67
2021/05/05 09:36:08;;;;;;;11.43;2.67;;;;;;;8.72;72.42;100425.38;5291524;28;20024;-67
2021/05/05 09:38:41;;;;;;;11.20;2.70;;;;;;;8.60;73.26;100427.25;5295520;28;20111;-67
2021/05/05 09:41:17;;;;;;;8.13;2.13;;;;;;;8.41;70.51;100445.34;5294143;28;20030;-67
2021/05/05 09:43:50;;;;;;;8.73;2.20;;;;;;;8.23;68.56;100443.28;5292712;28;20057;-67
2021/05/05 09:46:40;;;;;;;7.15;1.75;;;;;;;8.26;69.84;100457.88;5294862;27;20034;-68
2021/05/05 09:49:32;;;;;;;7.75;2.22;;;;;;;8.27;71.01;100464.75;5293680;28;20043;-67
2021/05/05 09:52:08;;;;;;;11.65;2.28;;;;;;;8.29;69.98;100483.69;5296491;28;20035;-67
2021/05/05 09:54:51;;;;;;;8.63;2.38;;;;;;;8.26;70.15;100471.75;5298202;28;20134;-67
2021/05/05 09:57:29;;;;;;;10.98;2.92;;;;;;;8.24;68.80;100475.41;5287916;28;20016;-67
2021/05/05 10:00:06;;;;;;;9.80;2.70;;;;;;;8.30;70.05;100474.94;5287525;28;20055;-67
2021/05/05 10:02:51;;;;;;;10.68;2.58;;;;;;;8.44;71.15;100474.66;5294995;28;20094;-67
2021/05/05 10:05:29;;;;;;;9.10;2.80;;;;;;;8.84;72.48;100483.59;5277704;28;21175;-67
2021/05/05 10:08:03;;;;;;;9.00;2.50;;;;;;;8.72;69.16;100494.13;5303082;28;20496;-67
2021/05/05 10:10:39;;;;;;;10.93;2.90;;;;;;;8.53;70.32;100520.91;5288511;28;20382;-66
2021/05/05 10:13:11;;;;;;;11.27;2.67;;;;;;;7.91;72.62;100524.09;5284992;28;20024;-66
2021/05/05 10:15:43;;;;;;;7.53;2.00;;;;;;;7.73;74.42;100526.41;5281899;28;20611;-66
2021/05/05 10:18:15;;;;;;;5.93;2.20;;;;;;;7.99;76.76;100526.97;5279243;28;20028;-66
2021/05/05 10:20:48;;;;;;;7.72;2.17;;;;;;;8.15;75.76;100538.81;5285680;28;20075;-66
2021/05/05 10:23:19;;;;;;;4.85;1.73;;;;;;;8.01;74.64;100543.31;5287249;28;20024;-66
2021/05/05 10:25:51;;;;;;;11.13;2.33;;;;;;;7.90;77.20;100548.53;5290699;28;20046;-65
2021/05/05 10:28:22;;;;;;;8.35;2.38;;;;;;;7.96;75.14;100542.84;5288753;28;20036;-68
2021/05/05 10:30:55;;;;;;;10.85;2.80;;;;;;;7.94;76.14;100565.59;5291736;28;20477;-67
2021/05/05 10:33:28;;;;;;;9.55;2.85;;;;;;;7.76;76.79;100580.06;5285703;28;20078;-66
2021/05/05 10:36:18;;;;;;;;;;;;;;;7.88;76.85;100591.34;5289702;28;20581;-67
2021/05/05 10:38:49;;;;;;;5.70;1.58;;;;;;;7.41;75.66;100599.25;5290348;28;20018;-67
2021/05/05 10:41:22;;;;;;;9.15;1.90;;;;;;;7.13;77.66;100587.47;5292298;28;20558;-68
2021/05/05 10:43:58;;;;;;;6.05;1.73;;;;;;;7.00;74.57;100592.72;5291629;28;20710;-66
2021/05/05 10:46:35;;;;;;;6.60;1.52;;;;;;;6.83;75.50;100593.16;5292404;28;20059;-67
2021/05/05 10:49:16;;;;;;;6.45;1.27;;;;;;;6.87;76.31;100586.78;5289799;28;20095;-67
2021/05/05 10:51:48;;;;;;;5.38;1.40;;;;;;;6.85;76.23;100595.63;5297052;28;20047;-67
2021/05/05 10:54:22;;;;;;;8.40;1.40;;;;;;;7.06;81.17;100594.06;5288800;28;20305;-67
2021/05/05 10:57:11;;;;;;;10.23;2.22;;;;;;;7.48;82.16;100584.81;5288766;28;20053;-67
2021/05/05 11:00:07;;;;;;;11.85;3.00;;;;;;;8.02;83.78;100598.94;5289653;28;20036;-67
2021/05/05 11:05:16;;;;;;;10.75;2.70;;;;;;;8.79;80.57;100580.63;5285069;28;20062;-65
2021/05/05 11:07:49;;;;;;;8.30;3.10;;;;;;;9.11;77.89;100593.66;5273396;28;20024;-66
2021/05/05 11:13:24;;;;;;;10.43;3.80;;;;;;;9.20;73.90;100600.72;5282732;28;20992;-65
2021/05/05 11:15:57;;;;;;;7.35;2.88;;;;;;;9.07;73.75;100609.72;5294676;28;20026;-66
2021/05/05 11:18:33;;;;;;;13.73;3.47;;;;;;;9.10;73.68;100614.72;5289383;28;20561;-65
2021/05/05 11:21:05;;;;;;;6.20;2.60;;;;;;;9.08;73.88;100619.22;5287222;28;20300;-66
2021/05/05 11:23:40;;;;;;;9.82;2.60;;;;;;;9.27;73.47;100607.09;5292704;28;20028;-65
2021/05/05 11:26:21;;;;;;;8.48;2.70;;;;;;;9.81;72.56;100628.78;5292731;28;20028;-67
2021/05/05 11:28:59;;;;;;;9.13;2.70;;;;;;;10.01;68.79;100639.31;5274501;28;20392;-66
2021/05/05 11:31:49;;;;;;;8.63;2.17;;;;;;;9.75;66.56;100674.59;5292248;28;20024;-66
2021/05/05 11:34:23;;;;;;;2.80;0.90;;;;;;;8.82;66.32;100687.47;5275151;28;20035;-67
2021/05/05 11:36:58;;;;;;;4.65;1.08;;;;;;;8.34;70.14;100700.81;5267345;28;20039;-66
2021/05/05 11:39:42;;;;;;;5.82;1.55;;;;;;;7.80;73.48;100691.88;5290564;28;20406;-66
2021/05/05 11:42:23;;;;;;;3.72;1.50;;;;;;;7.30;73.90;100706.88;5290576;28;20034;-66
2021/05/05 11:44:55;;;;;;;8.23;2.13;;;;;;;6.88;77.67;100676.16;5283703;28;20027;-66
2021/05/05 11:47:32;;;;;;;5.47;2.13;;;;;;;6.82;79.63;100674.84;5293150;27;20484;-66
2021/05/05 11:50:09;;;;;;;7.53;2.13;;;;;;;6.89;78.62;100676.03;5275275;28;20070;-66
2021/05/05 11:52:42;;;;;;;11.88;2.70;;;;;;;7.10;82.27;100678.88;5281396;28;20040;-66
2021/05/05 11:55:20;;;;;;;9.63;2.97;;;;;;;7.37;81.35;100688.19;5288035;28;20040;-67
2021/05/05 11:57:54;;;;;;;6.90;3.10;;;;;;;7.89;84.45;100690.34;5279634;28;20499;-66
2021/05/05 12:00:36;;;;;;;6.70;2.72;;;;;;;8.23;82.53;100695.59;5264699;28;20037;-66
2021/05/05 12:03:11;;;;;;;7.85;2.60;;;;;;;8.23;77.78;100698.22;5289062;28;20505;-67
2021/05/05 12:05:45;;;;;;;8.45;3.13;;;;;;;8.19;77.85;100705.44;5286172;28;20572;-67
2021/05/05 12:08:25;;;;;;;6.57;2.63;;;;;;;8.03;78.73;100716.22;5292641;28;20012;-66